Time;durP1;ratioP1;P1;durP2;ratioP2;P2;SDS_P1;SDS_P2;PMS_P1;PMS_P2;Temp;Humidity;BMP_temperature;BMP_pressure;BME280_temperature;BME280_humidity;BME280_pressure;Samples;Min_cycle;Max_cycle;Signal;HPM_P1;HPM_P2
2023/05/29 00:03:53;;;;;;;0.10;0.10;;;;;;;17.00;100.00;102333.91;10451677;28;20538;-82
2023/05/29 00:08:55;;;;;;;0.98;0.20;;;;;;;17.46;100.00;102328.78;10454281;28;20544;-81
2023/05/29 00:13:57;;;;;;;2.47;0.95;;;;;;;16.40;100.00;102354.16;10429640;28;20503;-82
2023/05/29 00:18:58;;;;;;;0.00;0.00;;;;;;;16.75;100.00;102341.13;10425601;28;20137;-81
2023/05/29 00:24:00;;;;;;;1.65;0.38;;;;;;;16.28;100.00;102346.03;10467745;28;20549;-82
2023/05/29 00:29:02;;;;;;;0.20;0.10;;;;;;;16.52;100.00;102350.09;10458756;28;20135;-81
2023/05/29 00:34:03;;;;;;;0.00;0.00;;;;;;;16.93;100.00;102350.25;10466490;28;20056;-81
2023/05/29 00:39:05;;;;;;;0.10;0.10;;;;;;;16.44;100.00;102358.59;10440396;28;20045;-81
2023/05/29 00:44:07;;;;;;;0.10;0.10;;;;;;;16.88;100.00;102349.19;10431055;28;20052;-81
2023/05/29 00:49:09;;;;;;;0.00;0.00;;;;;;;16.91;100.00;102352.75;10453956;28;20067;-81
2023/05/29 00:54:14;;;;;;;0.85;0.75;;;;;;;16.32;100.00;102363.50;10447762;28;20132;-82
2023/05/29 00:59:18;;;;;;;0.68;0.25;;;;;;;17.24;100.00;102348.28;10438712;28;20543;-81
2023/05/29 01:04:21;;;;;;;4.90;0.35;;;;;;;17.00;100.00;102365.16;10452460;28;20508;-81
2023/05/29 01:09:22;;;;;;;0.35;0.30;;;;;;;16.95;100.00;102371.97;10476369;28;20135;-81
2023/05/29 01:14:33;;;;;;;0.15;0.15;;;;;;;16.83;100.00;102367.31;10443212;28;20053;-81
2023/05/29 01:20:04;;;;;;;0.00;0.00;;;;;;;16.68;100.00;102370.44;10469433;28;20041;-81
2023/05/29 01:25:29;;;;;;;0.00;0.00;;;;;;;16.69;100.00;102385.22;10429926;28;20048;-81
2023/05/29 01:30:33;;;;;;;5.57;1.17;;;;;;;15.89;100.00;102384.03;10476980;28;20121;-82
2023/05/29 01:35:34;;;;;;;0.00;0.00;;;;;;;16.07;100.00;102388.84;10473983;28;20385;-82
2023/05/29 01:40:36;;;;;;;0.00;0.00;;;;;;;16.31;100.00;102382.53;10443468;28;20988;-82
2023/05/29 01:45:39;;;;;;;3.45;0.60;;;;;;;15.78;100.00;102390.63;10460317;28;20044;-81
2023/05/29 01:50:43;;;;;;;0.13;0.13;;;;;;;15.88;100.00;102386.59;10451654;28;20128;-81
2023/05/29 01:55:45;;;;;;;4.78;0.68;;;;;;;15.71;100.00;102389.56;10451193;28;20040;-82
2023/05/29 02:00:48;;;;;;;4.05;0.32;;;;;;;15.89;100.00;102389.22;10466843;28;20071;-83
2023/05/29 02:05:50;;;;;;;0.00;0.00;;;;;;;15.52;100.00;102393.34;10456266;28;20052;-81
2023/05/29 02:10:52;;;;;;;0.77;0.17;;;;;;;15.76;100.00;102392.28;10457940;28;20128;-81
2023/05/29 02:15:54;;;;;;;1.13;0.40;;;;;;;15.74;100.00;102397.47;10451775;28;20453;-82
2023/05/29 02:20:57;;;;;;;0.10;0.10;;;;;;;15.62;100.00;102399.69;10465158;28;20080;-82
2023/05/29 02:25:59;;;;;;;0.00;0.00;;;;;;;15.56;100.00;102410.78;10458542;28;20150;-82
2023/05/29 02:31:02;;;;;;;0.22;0.20;;;;;;;15.69;100.00;102406.81;10446476;28;20044;-81
2023/05/29 02:36:04;;;;;;;0.43;0.15;;;;;;;15.64;100.00;102393.69;10449055;28;20045;-81
2023/05/29 02:41:06;;;;;;;0.10;0.10;;;;;;;15.35;100.00;102385.06;10453533;28;20056;-82
2023/05/29 02:46:07;;;;;;;0.00;0.00;;;;;;;15.73;100.00;102381.78;10452059;28;20655;-82
2023/05/29 02:51:09;;;;;;;0.32;0.32;;;;;;;15.58;100.00;102380.53;10456128;28;20492;-82
2023/05/29 02:56:12;;;;;;;2.17;0.25;;;;;;;16.29;100.00;102389.41;10467827;28;20049;-81
2023/05/29 03:01:13;;;;;;;1.17;0.32;;;;;;;15.74;100.00;102392.25;10460075;28;20496;-81
2023/05/29 03:06:17;;;;;;;0.95;0.75;;;;;;;15.47;100.00;102401.00;10459800;28;20041;-82
2023/05/29 03:11:20;;;;;;;16.45;0.57;;;;;;;15.43;100.00;102401.75;10456177;28;20052;-82
2023/05/29 03:16:22;;;;;;;2.22;0.70;;;;;;;15.36;100.00;102418.00;10449011;28;20041;-81
2023/05/29 03:21:24;;;;;;;0.10;0.10;;;;;;;15.04;100.00;102416.13;10439442;28;20491;-81
2023/05/29 03:26:26;;;;;;;0.95;0.70;;;;;;;15.07;100.00;102410.19;10464738;28;20049;-82
2023/05/29 03:31:28;;;;;;;0.03;0.03;;;;;;;15.15;100.00;102413.88;10444510;28;20050;-82
2023/05/29 03:36:31;;;;;;;1.45;0.75;;;;;;;15.00;100.00;102414.28;10452964;28;20049;-81
2023/05/29 03:41:33;;;;;;;0.65;0.30;;;;;;;15.13;100.00;102405.19;10443867;28;20033;-82
2023/05/29 03:46:36;;;;;;;0.00;0.00;;;;;;;14.91;100.00;102414.88;10440838;28;20048;-82
2023/05/29 03:51:39;;;;;;;0.05;0.05;;;;;;;15.35;100.00;102411.03;10446015;28;20065;-81
2023/05/29 03:56:41;;;;;;;0.00;0.00;;;;;;;15.25;100.00;102414.16;10469120;28;20047;-83
2023/05/29 04:01:42;;;;;;;0.00;0.00;;;;;;;14.99;100.00;102416.84;10452072;28;20037;-83
2023/05/29 04:06:44;;;;;;;0.00;0.00;;;;;;;15.28;100.00;102422.06;10450880;28;20099;-82
2023/05/29 04:11:46;;;;;;;5.38;1.45;;;;;;;15.57;100.00;102429.84;10466921;28;20063;-82
2023/05/29 04:16:48;;;;;;;0.20;0.10;;;;;;;15.95;100.00;102433.56;10446550;28;20086;-81
2023/05/29 04:21:49;;;;;;;0.10;0.10;;;;;;;15.54;100.00;102441.91;10461331;28;20051;-81
2023/05/29 04:26:52;;;;;;;0.75;0.43;;;;;;;15.79;100.00;102433.94;10429837;28;20496;-80
2023/05/29 04:31:55;;;;;;;0.10;0.10;;;;;;;16.02;100.00;102427.72;10423733;28;20048;-80
2023/05/29 04:36:58;;;;;;;0.30;0.10;;;;;;;15.42;100.00;102428.56;10429898;28;20052;-81
2023/05/29 04:42:00;;;;;;;1.17;0.63;;;;;;;15.92;100.00;102420.50;10463817;28;20407;-81
2023/05/29 04:47:03;;;;;;;0.00;0.00;;;;;;;15.79;100.00;102429.63;10449512;28;20051;-81
2023/05/29 04:52:05;;;;;;;0.10;0.10;;;;;;;15.63;100.00;102453.41;10460351;28;20056;-83
2023/05/29 04:57:08;;;;;;;0.20;0.10;;;;;;;16.06;100.00;102453.81;10450516;28;20135;-82
2023/05/29 05:02:10;;;;;;;0.00;0.00;;;;;;;16.30;100.00;102458.78;10453007;28;20499;-81
2023/05/29 05:07:12;;;;;;;0.47;0.10;;;;;;;16.03;100.00;102465.00;10459567;28;20049;-82
2023/05/29 05:12:14;;;;;;;0.40;0.22;;;;;;;15.54;100.00;102467.00;10462248;28;20515;-81
2023/05/29 05:17:17;;;;;;;0.00;0.00;;;;;;;16.11;100.00;102463.50;10444891;28;20049;-81
2023/05/29 05:22:19;;;;;;;3.25;1.77;;;;;;;17.05;100.00;102466.81;10465029;28;20094;-81
2023/05/29 05:27:23;;;;;;;0.65;0.40;;;;;;;16.78;100.00;102467.84;10421355;28;20099;-82
2023/05/29 05:32:25;;;;;;;1.13;1.02;;;;;;;16.21;100.00;102468.94;10450132;28;20099;-80
2023/05/29 05:37:34;;;;;;;0.40;0.27;;;;;;;16.82;100.00;102469.69;10448565;28;20049;-81
2023/05/29 05:42:37;;;;;;;0.00;0.00;;;;;;;17.32;100.00;102478.69;10445002;28;20553;-81
2023/05/29 05:47:43;;;;;;;0.35;0.17;;;;;;;17.74;100.00;102459.63;10451218;28;20090;-81
2023/05/29 05:52:46;;;;;;;1.08;0.98;;;;;;;17.11;100.00;102475.63;10455402;28;20045;-82
2023/05/29 05:57:47;;;;;;;0.45;0.20;;;;;;;16.78;100.00;102479.16;10448095;28;20068;-82
2023/05/29 06:02:49;;;;;;;1.52;0.22;;;;;;;17.40;100.00;102477.16;10421437;28;20094;-81
2023/05/29 06:08:10;;;;;;;0.00;0.00;;;;;;;17.40;100.00;102470.22;10452781;28;20075;-81
2023/05/29 06:13:12;;;;;;;0.00;0.00;;;;;;;18.23;99.02;102465.00;10433702;28;20045;-81
2023/05/29 06:18:20;;;;;;;1.48;0.55;;;;;;;17.91;97.69;102473.03;10446443;28;20072;-82
2023/05/29 06:23:22;;;;;;;1.02;0.20;;;;;;;17.77;97.75;102481.44;10431791;28;20048;-82
2023/05/29 06:28:24;;;;;;;0.25;0.10;;;;;;;17.68;98.18;102486.47;10446505;28;20065;-82
2023/05/29 06:33:29;;;;;;;1.75;1.08;;;;;;;18.31;96.33;102479.06;10456474;28;20048;-82
2023/05/29 06:38:31;;;;;;;1.27;0.10;;;;;;;18.32;96.17;102486.03;10438353;28;20123;-83
2023/05/29 06:43:33;;;;;;;2.30;0.52;;;;;;;18.43;95.58;102493.22;10449993;28;20066;-82
2023/05/29 06:48:37;;;;;;;1.55;0.95;;;;;;;17.90;94.46;102481.72;10463348;28;20532;-82
2023/05/29 06:53:39;;;;;;;4.05;0.70;;;;;;;18.58;92.11;102493.47;10444679;28;20041;-80
2023/05/29 06:58:42;;;;;;;6.30;0.75;;;;;;;18.94;90.08;102492.41;10438847;28;20052;-82
2023/05/29 07:03:46;;;;;;;0.00;0.00;;;;;;;19.25;90.03;102503.31;10468903;28;20051;-80
2023/05/29 07:08:50;;;;;;;0.00;0.00;;;;;;;19.82;88.85;102495.41;10457791;28;20043;-82
2023/05/29 07:13:54;;;;;;;2.95;0.63;;;;;;;18.99;89.48;102501.19;10469656;28;20067;-82
2023/05/29 07:18:57;;;;;;;0.00;0.00;;;;;;;19.44;86.86;102500.97;10447798;28;20060;-81
2023/05/29 07:23:59;;;;;;;0.00;0.00;;;;;;;19.73;82.98;102501.38;10444937;28;20045;-82
2023/05/29 07:29:01;;;;;;;0.00;0.00;;;;;;;20.60;83.11;102505.00;10469518;28;20110;-81
2023/05/29 07:34:06;;;;;;;0.00;0.00;;;;;;;21.24;81.21;102512.56;10430672;28;20048;-82
2023/05/29 07:39:08;;;;;;;0.63;0.55;;;;;;;19.57;83.39;102510.75;10447393;28;20127;-82
2023/05/29 07:44:12;;;;;;;0.00;0.00;;;;;;;20.06;82.95;102507.94;10471724;28;20041;-82
2023/05/29 07:49:14;;;;;;;0.88;0.68;;;;;;;19.39;81.32;102513.13;10462496;28;20135;-82
2023/05/29 07:54:20;;;;;;;0.15;0.15;;;;;;;19.85;79.27;102505.91;10464711;28;20411;-83
2023/05/29 07:59:23;;;;;;;0.03;0.03;;;;;;;20.18;78.05;102506.34;10453588;28;20111;-84
2023/05/29 08:04:25;;;;;;;0.52;0.38;;;;;;;20.00;77.82;102514.81;10425775;28;20064;-82
2023/05/29 08:09:27;;;;;;;0.00;0.00;;;;;;;20.39;78.45;102518.75;10471464;28;20119;-82
2023/05/29 08:14:29;;;;;;;0.00;0.00;;;;;;;20.34;77.27;102525.69;10454565;28;20045;-83
2023/05/29 08:19:32;;;;;;;0.90;0.77;;;;;;;22.16;73.37;102521.78;10450840;28;20049;-81
2023/05/29 08:24:33;;;;;;;0.00;0.00;;;;;;;21.22;73.23;102530.00;10457243;28;20076;-82
2023/05/29 08:29:36;;;;;;;0.30;0.30;;;;;;;20.86;75.05;102528.84;10429761;28;20045;-82
2023/05/29 08:34:41;;;;;;;0.00;0.00;;;;;;;22.06;72.32;102506.00;10447305;28;20032;-81
2023/05/29 08:39:43;;;;;;;0.13;0.05;;;;;;;23.17;74.60;102505.28;10452513;28;20080;-81
2023/05/29 08:44:48;;;;;;;0.25;0.25;;;;;;;21.99;72.58;102531.38;10450165;28;20045;-81
2023/05/29 08:49:53;;;;;;;0.00;0.00;;;;;;;22.55;69.12;102524.56;10433608;28;20067;-82
2023/05/29 08:54:55;;;;;;;1.38;0.20;;;;;;;21.14;71.11;102531.69;10430886;28;20049;-83
2023/05/29 08:59:58;;;;;;;0.00;0.00;;;;;;;21.62;71.32;102528.56;10446835;28;20048;-83
2023/05/29 09:04:59;;;;;;;0.10;0.10;;;;;;;22.68;68.20;102524.56;10430768;28;20466;-83
2023/05/29 09:10:01;;;;;;;0.00;0.00;;;;;;;23.99;68.31;102520.88;10451735;28;20506;-80
2023/05/29 09:15:06;;;;;;;0.30;0.13;;;;;;;23.08;67.34;102525.44;10416963;28;20080;-83
2023/05/29 09:20:15;;;;;;;1.17;0.28;;;;;;;24.40;63.87;102509.25;10446900;28;20474;-83
2023/05/29 09:25:21;;;;;;;0.30;0.20;;;;;;;24.44;64.69;102515.38;10436133;28;20098;-81
2023/05/29 09:30:46;;;;;;;0.00;0.00;;;;;;;22.87;64.98;102525.44;10449318;28;20116;-81
2023/05/29 09:35:50;;;;;;;0.00;0.00;;;;;;;22.65;64.76;102520.19;10467100;28;20071;-82
2023/05/29 09:40:55;;;;;;;2.05;0.32;;;;;;;23.31;64.50;102519.31;10437717;28;20426;-80
2023/05/29 09:45:58;;;;;;;0.93;0.43;;;;;;;23.16;66.15;102524.56;10464205;28;20063;-81
2023/05/29 09:51:02;;;;;;;0.10;0.00;;;;;;;23.37;63.98;102510.53;10469601;28;20558;-80
2023/05/29 09:56:05;;;;;;;0.73;0.30;;;;;;;22.00;66.67;102514.75;10440266;28;20124;-81
2023/05/29 10:01:07;;;;;;;0.00;0.00;;;;;;;22.44;64.67;102513.13;10450395;28;20051;-82
2023/05/29 10:06:11;;;;;;;0.75;0.40;;;;;;;23.67;64.80;102506.94;10443057;28;20510;-81
2023/05/29 10:11:15;;;;;;;0.10;0.10;;;;;;;23.85;63.98;102507.75;10433680;28;20053;-81
2023/05/29 10:16:21;;;;;;;0.00;0.00;;;;;;;23.67;60.60;102508.72;10437387;28;20064;-80
2023/05/29 10:21:27;;;;;;;0.08;0.08;;;;;;;23.63;62.04;102504.31;10461866;28;20045;-81
2023/05/29 10:26:31;;;;;;;0.00;0.00;;;;;;;23.13;62.89;102518.41;10456605;28;20063;-81
2023/05/29 10:31:48;;;;;;;0.22;0.15;;;;;;;22.98;61.85;102507.91;10435721;28;20044;-81
2023/05/29 10:37:02;;;;;;;0.10;0.10;;;;;;;24.35;62.38;102498.75;10450433;28;20565;-81
2023/05/29 10:42:43;;;;;;;1.80;0.40;;;;;;;23.95;61.10;102490.19;10438181;28;20064;-79
2023/05/29 10:47:48;;;;;;;0.55;0.10;;;;;;;23.64;58.89;102499.06;10451721;28;20045;-81
2023/05/29 10:52:50;;;;;;;0.38;0.20;;;;;;;24.17;61.30;102488.31;10442420;28;20080;-81
2023/05/29 10:57:52;;;;;;;0.47;0.35;;;;;;;25.31;57.39;102482.13;10455555;28;20055;-79
2023/05/29 11:02:53;;;;;;;0.10;0.10;;;;;;;23.75;58.72;102492.00;10443725;28;20041;-82
2023/05/29 11:07:57;;;;;;;0.25;0.22;;;;;;;25.06;57.96;102485.91;10473728;28;20045;-82
2023/05/29 11:13:04;;;;;;;0.70;0.40;;;;;;;22.94;57.44;102493.03;10467983;28;20484;-81
2023/05/29 11:18:07;;;;;;;0.25;0.20;;;;;;;24.93;55.86;102480.75;10442763;28;20065;-81
2023/05/29 11:23:17;;;;;;;0.75;0.40;;;;;;;23.88;56.14;102476.16;10458213;28;20102;-80
2023/05/29 11:28:19;;;;;;;0.00;0.00;;;;;;;24.87;56.29;102467.63;10447741;28;20041;-81
2023/05/29 11:33:25;;;;;;;0.10;0.10;;;;;;;25.27;56.19;102476.88;10450603;28;20498;-80
2023/05/29 11:38:28;;;;;;;0.15;0.15;;;;;;;23.66;54.62;102486.75;10450642;28;20164;-80
2023/05/29 11:43:30;;;;;;;0.00;0.00;;;;;;;23.89;52.47;102484.06;10460568;28;20140;-81
2023/05/29 11:48:32;;;;;;;0.35;0.30;;;;;;;25.34;52.02;102468.00;10472641;28;20048;-81
2023/05/29 11:53:34;;;;;;;0.98;0.25;;;;;;;24.96;50.12;102482.47;10456164;28;20087;-81
2023/05/29 11:58:40;;;;;;;0.00;0.00;;;;;;;25.32;48.45;102478.59;10455889;28;20037;-81
2023/05/29 12:03:42;;;;;;;0.03;0.03;;;;;;;25.12;48.98;102470.03;10446742;28;20131;-80
2023/05/29 12:08:44;;;;;;;0.30;0.20;;;;;;;24.06;48.18;102460.31;10457337;28;20045;-80
2023/05/29 12:13:55;;;;;;;0.00;0.00;;;;;;;23.52;46.55;102462.25;10442956;28;20079;-80
2023/05/29 12:18:57;;;;;;;0.00;0.00;;;;;;;23.64;45.75;102461.34;10457243;28;20499;-83
2023/05/29 12:23:59;;;;;;;0.40;0.40;;;;;;;24.30;48.91;102462.78;10456134;28;20143;-81
2023/05/29 12:29:05;;;;;;;0.17;0.17;;;;;;;24.52;47.97;102463.50;10472043;28;20053;-82
2023/05/29 12:34:15;;;;;;;0.70;0.30;;;;;;;25.16;50.45;102471.72;10468056;28;20453;-80
2023/05/29 12:39:17;;;;;;;0.57;0.30;;;;;;;24.98;45.76;102464.88;10469707;28;20103;-82
2023/05/29 12:44:19;;;;;;;0.35;0.05;;;;;;;26.18;47.16;102465.22;10436567;28;20048;-80
2023/05/29 12:49:23;;;;;;;0.35;0.10;;;;;;;24.50;43.62;102475.81;10455958;28;20083;-82
2023/05/29 12:54:25;;;;;;;0.03;0.03;;;;;;;26.53;46.45;102463.81;10444649;28;20056;-80
2023/05/29 12:59:26;;;;;;;0.10;0.10;;;;;;;27.19;42.71;102453.84;10458662;28;20119;-80
2023/05/29 13:04:28;;;;;;;1.13;0.30;;;;;;;26.37;44.46;102462.31;10460191;28;20492;-81
2023/05/29 13:09:30;;;;;;;0.00;0.00;;;;;;;25.00;43.37;102458.69;10421722;28;20083;-82
2023/05/29 13:14:32;;;;;;;0.20;0.10;;;;;;;25.81;44.14;102457.78;10454147;28;20106;-82
2023/05/29 13:19:34;;;;;;;0.30;0.28;;;;;;;26.82;42.94;102451.88;10462762;28;20049;-81
2023/05/29 13:24:35;;;;;;;1.25;0.35;;;;;;;25.35;43.18;102448.66;10436807;28;20045;-82
2023/05/29 13:29:37;;;;;;;0.40;0.30;;;;;;;24.47;44.07;102449.47;10453756;28;20041;-81
2023/05/29 13:34:39;;;;;;;0.17;0.17;;;;;;;25.56;43.29;102442.28;10462317;28;20043;-80
2023/05/29 13:39:42;;;;;;;0.10;0.10;;;;;;;26.79;43.29;102444.00;10466938;28;20044;-80
2023/05/29 13:44:43;;;;;;;1.35;0.93;;;;;;;25.93;41.53;102444.44;10466607;28;20063;-80
2023/05/29 13:49:48;;;;;;;0.35;0.13;;;;;;;24.46;39.32;102455.66;10439018;28;20055;-80
2023/05/29 13:54:50;;;;;;;0.00;0.00;;;;;;;26.25;38.27;102452.81;10448564;28;20627;-80
2023/05/29 13:59:57;;;;;;;1.02;0.20;;;;;;;25.39;41.25;102452.16;10463506;28;20052;-79
2023/05/29 14:04:59;;;;;;;0.00;0.00;;;;;;;25.43;39.91;102451.25;10455520;28;20041;-79
2023/05/29 14:10:01;;;;;;;0.15;0.15;;;;;;;25.13;36.88;102459.44;10449184;28;20127;-82
2023/05/29 14:15:03;;;;;;;0.05;0.05;;;;;;;27.08;40.46;102437.28;10422947;28;20045;-81
2023/05/29 14:20:08;;;;;;;0.08;0.08;;;;;;;24.85;39.92;102448.31;10480117;28;20049;-81
2023/05/29 14:25:10;;;;;;;0.00;0.00;;;;;;;25.65;43.49;102443.94;10433285;28;20049;-80
2023/05/29 14:30:12;;;;;;;0.00;0.00;;;;;;;26.04;46.55;102433.72;10453343;28;20056;-81
2023/05/29 14:35:13;;;;;;;0.47;0.40;;;;;;;26.50;44.95;102434.78;10455611;28;20053;-80
2023/05/29 14:40:15;;;;;;;0.00;0.00;;;;;;;25.82;44.06;102435.78;10469439;28;20040;-80
2023/05/29 14:45:17;;;;;;;0.00;0.00;;;;;;;25.26;43.11;102447.00;10443165;28;20041;-82
2023/05/29 14:50:20;;;;;;;2.50;1.00;;;;;;;25.61;42.08;102443.09;10440872;28;20049;-81
2023/05/29 14:55:21;;;;;;;0.00;0.00;;;;;;;25.53;42.60;102439.69;10462879;28;20262;-79
2023/05/29 15:00:23;;;;;;;0.00;0.00;;;;;;;26.00;38.93;102439.91;10472824;28;20048;-80
2023/05/29 15:05:29;;;;;;;0.80;0.40;;;;;;;26.17;40.64;102431.81;10468808;28;20568;-79
2023/05/29 15:10:32;;;;;;;0.77;0.30;;;;;;;26.12;40.60;102428.34;10441058;28;20049;-80
2023/05/29 15:15:33;;;;;;;0.10;0.10;;;;;;;25.54;39.68;102433.50;10454161;28;20128;-80
2023/05/29 15:20:48;;;;;;;0.00;0.00;;;;;;;25.93;41.48;102433.88;10451567;28;20499;-80
2023/05/29 15:25:50;;;;;;;2.60;0.90;;;;;;;26.71;40.94;102428.25;10442020;28;20381;-80
2023/05/29 15:30:52;;;;;;;0.00;0.00;;;;;;;25.43;38.02;102443.34;10459039;28;20468;-79
2023/05/29 15:35:54;;;;;;;0.28;0.28;;;;;;;25.48;39.61;102441.50;10464756;28;20081;-80
2023/05/29 15:40:55;;;;;;;0.00;0.00;;;;;;;25.34;39.11;102439.00;10436023;28;20053;-80
2023/05/29 15:45:57;;;;;;;0.40;0.28;;;;;;;24.86;42.07;102444.78;10463221;28;20059;-80
2023/05/29 15:51:01;;;;;;;0.75;0.47;;;;;;;25.10;45.02;102429.59;10431858;28;20658;-81
2023/05/29 15:56:03;;;;;;;0.85;0.63;;;;;;;24.91;43.33;102429.78;10424883;28;20512;-80
2023/05/29 16:01:04;;;;;;;0.10;0.10;;;;;;;25.14;45.31;102433.94;10431604;28;20565;-82
2023/05/29 16:06:06;;;;;;;0.13;0.03;;;;;;;25.76;43.23;102420.03;10440699;28;20520;-81
2023/05/29 16:11:08;;;;;;;0.28;0.17;;;;;;;24.86;45.02;102436.88;10449399;28;20053;-82
2023/05/29 16:16:09;;;;;;;0.43;0.40;;;;;;;24.74;46.51;102431.72;10465438;28;20056;-80
2023/05/29 16:21:12;;;;;;;0.10;0.05;;;;;;;24.36;44.35;102432.00;10457397;28;20799;-81
2023/05/29 16:26:13;;;;;;;0.00;0.00;;;;;;;25.26;44.91;102431.19;10463983;28;20059;-81
2023/05/29 16:31:15;;;;;;;0.35;0.25;;;;;;;25.71;44.71;102421.88;10464381;28;20045;-81
2023/05/29 16:36:18;;;;;;;0.00;0.00;;;;;;;24.27;46.78;102437.34;10458649;28;20045;-83
2023/05/29 16:41:19;;;;;;;0.25;0.25;;;;;;;25.70;46.00;102436.81;10438325;28;20492;-83
2023/05/29 16:46:22;;;;;;;0.00;0.00;;;;;;;24.16;45.19;102439.19;10459994;28;20052;-81
2023/05/29 16:51:23;;;;;;;3.92;0.45;;;;;;;25.00;45.46;102440.25;10469516;28;20033;-82
2023/05/29 16:56:25;;;;;;;0.20;0.00;;;;;;;24.02;44.70;102442.75;10456225;28;20045;-83
2023/05/29 17:01:27;;;;;;;0.00;0.00;;;;;;;23.93;44.71;102434.94;10454230;28;20488;-83
2023/05/29 17:06:29;;;;;;;0.00;0.00;;;;;;;25.45;45.59;102431.88;10462255;28;20052;-81
2023/05/29 17:11:30;;;;;;;0.60;0.20;;;;;;;24.87;44.84;102428.09;10476255;28;20467;-80
2023/05/29 17:16:32;;;;;;;0.38;0.10;;;;;;;23.83;43.11;102435.81;10467411;28;20568;-82
2023/05/29 17:21:34;;;;;;;0.00;0.00;;;;;;;24.38;42.37;102435.50;10442712;28;20040;-81
2023/05/29 17:26:36;;;;;;;0.30;0.30;;;;;;;23.24;44.24;102441.31;10455680;28;20045;-82
2023/05/29 17:31:38;;;;;;;0.10;0.10;;;;;;;23.93;45.30;102440.19;10440251;28;20510;-82
2023/05/29 17:36:39;;;;;;;1.95;1.25;;;;;;;23.45;46.02;102451.78;10466633;28;20132;-83
2023/05/29 17:41:41;;;;;;;0.43;0.17;;;;;;;23.78;45.41;102451.63;10435124;28;20048;-81
2023/05/29 17:46:43;;;;;;;1.95;0.55;;;;;;;23.23;46.91;102457.97;10433813;28;20052;-82
2023/05/29 17:51:44;;;;;;;0.30;0.15;;;;;;;23.29;47.84;102455.31;10434089;28;20144;-82
2023/05/29 17:56:46;;;;;;;0.52;0.50;;;;;;;22.78;48.11;102452.75;10455142;28;20519;-83
2023/05/29 18:01:48;;;;;;;0.00;0.00;;;;;;;22.62;48.57;102470.25;10453810;28;20052;-81
2023/05/29 18:06:49;;;;;;;0.30;0.10;;;;;;;22.01;49.50;102464.00;10448141;28;20084;-82
2023/05/29 18:11:51;;;;;;;3.00;0.93;;;;;;;22.35;50.13;102470.19;10447014;28;20059;-82
2023/05/29 18:16:55;;;;;;;0.00;0.00;;;;;;;21.84;51.60;102475.34;10439932;28;20434;-84
2023/05/29 18:21:56;;;;;;;0.55;0.25;;;;;;;22.01;52.85;102471.88;10461293;28;20500;-82
2023/05/29 18:26:58;;;;;;;0.35;0.08;;;;;;;21.80;52.43;102481.41;10480538;28;20057;-81
2023/05/29 18:32:01;;;;;;;0.00;0.00;;;;;;;21.39;53.41;102490.81;10449198;28;20048;-83
2023/05/29 18:37:02;;;;;;;0.47;0.40;;;;;;;21.44;53.55;102495.22;10455739;28;20064;-81
2023/05/29 18:42:05;;;;;;;0.17;0.17;;;;;;;21.40;53.97;102491.69;10447583;28;20061;-81
2023/05/29 18:47:07;;;;;;;1.45;0.52;;;;;;;20.94;51.63;102494.00;10450632;28;20470;-81
2023/05/29 18:52:08;;;;;;;1.15;0.25;;;;;;;21.04;52.76;102504.56;10451536;28;20048;-82
2023/05/29 18:57:10;;;;;;;0.00;0.00;;;;;;;21.21;51.08;102496.81;10431156;28;20046;-81
2023/05/29 19:02:12;;;;;;;0.30;0.10;;;;;;;20.84;51.39;102501.75;10459756;28;20383;-82
2023/05/29 19:07:14;;;;;;;0.17;0.10;;;;;;;20.60;50.18;102502.41;10476679;28;20053;-82
2023/05/29 19:12:16;;;;;;;0.32;0.15;;;;;;;20.70;49.18;102503.34;10438549;28;20048;-81
2023/05/29 19:17:18;;;;;;;0.43;0.30;;;;;;;20.21;48.53;102509.84;10463129;28;20129;-81
2023/05/29 19:22:20;;;;;;;21.90;1.75;;;;;;;19.82;48.90;102513.69;10461298;28;20044;-81
2023/05/29 19:27:22;;;;;;;0.15;0.00;;;;;;;19.73;49.45;102511.81;10460224;28;20041;-81
2023/05/29 19:32:25;;;;;;;0.90;0.35;;;;;;;19.53;49.75;102528.97;10446768;28;20064;-82
2023/05/29 19:37:26;;;;;;;0.00;0.00;;;;;;;19.44;50.30;102524.50;10454425;28;20045;-81
2023/05/29 19:42:28;;;;;;;0.08;0.00;;;;;;;18.92;52.15;102541.09;10459559;28;20041;-82
2023/05/29 19:47:30;;;;;;;0.20;0.20;;;;;;;19.18;52.53;102540.63;10455310;28;20049;-81
2023/05/29 19:52:31;;;;;;;0.00;0.00;;;;;;;18.84;53.84;102538.31;10416339;28;20051;-82
2023/05/29 19:57:33;;;;;;;0.28;0.20;;;;;;;18.93;54.44;102547.19;10465312;28;20045;-81
2023/05/29 20:02:36;;;;;;;0.75;0.65;;;;;;;18.47;55.56;102547.19;10434754;28;20052;-82
2023/05/29 20:07:38;;;;;;;0.00;0.00;;;;;;;18.60;56.32;102548.31;10458966;28;20075;-82
2023/05/29 20:12:39;;;;;;;0.22;0.22;;;;;;;18.24;57.57;102556.31;10457811;28;20114;-81
2023/05/29 20:17:42;;;;;;;0.00;0.00;;;;;;;18.11;59.09;102569.09;10435587;28;20468;-81
2023/05/29 20:22:45;;;;;;;0.47;0.35;;;;;;;17.56;62.13;102578.28;10465190;28;20044;-82
2023/05/29 20:27:47;;;;;;;2.08;0.30;;;;;;;18.03;62.96;102580.25;10479959;28;20408;-80
2023/05/29 20:32:49;;;;;;;0.00;0.00;;;;;;;18.04;63.78;102582.00;10454557;28;20040;-82
2023/05/29 20:37:53;;;;;;;0.38;0.30;;;;;;;17.49;66.66;102583.31;10453684;28;20045;-81
2023/05/29 20:42:55;;;;;;;0.08;0.08;;;;;;;17.59;68.44;102580.09;10449531;28;20381;-81
2023/05/29 20:47:58;;;;;;;1.23;0.17;;;;;;;17.73;70.73;102589.09;10437836;28;20500;-82
2023/05/29 20:53:00;;;;;;;0.45;0.10;;;;;;;17.55;73.88;102588.66;10452707;28;20079;-81
2023/05/29 20:58:04;;;;;;;0.25;0.20;;;;;;;17.15;77.62;102590.28;10465864;28;20145;-81
2023/05/29 21:03:06;;;;;;;11.00;0.32;;;;;;;17.31;77.62;102604.56;10461433;28;20037;-83
2023/05/29 21:08:09;;;;;;;1.27;0.80;;;;;;;17.15;78.63;102603.31;10475414;28;20055;-81
2023/05/29 21:13:10;;;;;;;0.00;0.00;;;;;;;16.57;83.82;102603.47;10467562;28;20045;-81
2023/05/29 21:18:22;;;;;;;0.00;0.00;;;;;;;17.03;82.17;102594.31;10449367;28;20132;-81
2023/05/29 21:23:27;;;;;;;0.08;0.03;;;;;;;16.78;85.41;102588.47;10448708;28;20041;-82
2023/05/29 21:28:28;;;;;;;0.10;0.10;;;;;;;16.79;86.43;102585.00;10451195;28;20203;-81
2023/05/29 21:33:32;;;;;;;0.28;0.20;;;;;;;17.10;86.95;102591.03;10455310;28;20086;-81
2023/05/29 21:38:33;;;;;;;0.00;0.00;;;;;;;17.06;87.88;102593.53;10465210;28;20044;-80
2023/05/29 21:43:35;;;;;;;0.05;0.05;;;;;;;16.60;89.85;102598.34;10447131;28;20052;-82
2023/05/29 21:48:39;;;;;;;0.00;0.00;;;;;;;16.42;91.79;102596.97;10441299;28;20052;-81
2023/05/29 21:53:40;;;;;;;0.00;0.00;;;;;;;16.60;92.91;102604.44;10430033;28;20051;-82
2023/05/29 21:58:42;;;;;;;0.00;0.00;;;;;;;16.39;95.02;102612.50;10447389;28;20484;-81
2023/05/29 22:03:44;;;;;;;0.00;0.00;;;;;;;16.29;95.59;102607.88;10446256;28;20058;-82
2023/05/29 22:08:47;;;;;;;0.15;0.08;;;;;;;16.16;98.01;102622.22;10446097;28;20049;-82
2023/05/29 22:13:50;;;;;;;0.25;0.08;;;;;;;16.22;99.16;102621.53;10463426;28;20064;-82
2023/05/29 22:18:52;;;;;;;0.00;0.00;;;;;;;16.39;98.75;102620.31;10439731;28;20118;-81
2023/05/29 22:24:06;;;;;;;0.10;0.10;;;;;;;15.92;100.00;102632.75;10431566;28;20407;-80
2023/05/29 22:29:08;;;;;;;0.00;0.00;;;;;;;16.09;100.00;102631.56;10448562;28;20059;-80
2023/05/29 22:34:10;;;;;;;0.47;0.17;;;;;;;16.17;100.00;102640.47;10449943;28;20041;-81
2023/05/29 22:39:11;;;;;;;0.00;0.00;;;;;;;16.30;100.00;102636.53;10459495;28;20045;-81
2023/05/29 22:44:13;;;;;;;0.00;0.00;;;;;;;16.12;100.00;102641.16;10459292;28;20040;-81
2023/05/29 22:49:15;;;;;;;1.17;0.45;;;;;;;16.04;100.00;102638.34;10459874;28;20049;-81
2023/05/29 22:54:17;;;;;;;4.22;0.22;;;;;;;15.99;100.00;102634.69;10439833;28;20056;-82
2023/05/29 22:59:19;;;;;;;0.00;0.00;;;;;;;15.90;100.00;102637.03;10458312;28;20044;-81
2023/05/29 23:04:20;;;;;;;0.20;0.10;;;;;;;15.80;100.00;102633.19;10439925;28;20102;-81
2023/05/29 23:09:22;;;;;;;0.10;0.00;;;;;;;15.61;100.00;102632.63;10455051;28;20045;-81